Terminal Aerodrome Forecast
Issued by NWS Goodland, KS

Home | Current Version | Previous Version | Text Only | Print | Product List | Glossary On
Versions: 1 2 3 4 5 6 7 8 9 10 11 12 13 14
128
FTUS43 KGLD 201123
TAFGLD
TAF
KGLD 201123Z 2012/2112 25009KT P6SM FEW250
     FM201900 29014KT P6SM SCT250
     FM210000 32007KT P6SM SCT250
     FM210200 26006KT P6SM SCT200
     FM210500 30008KT P6SM BKN150
     FM210800 34013KT P6SM BKN100=

USA.gov is the U.S. government's official web portal to all federal, state and local government web resources and services.